Time;durP1;ratioP1;P1;durP2;ratioP2;P2;SDS_P1;SDS_P2;PMS_P1;PMS_P2;Temp;Humidity;BMP_temperature;BMP_pressure;BME280_temperature;BME280_humidity;BME280_pressure;Samples;Min_cycle;Max_cycle;Signal;HPM_P1;HPM_P2
2021/06/16 00:00:08;;;;;;;11.82;2.03;;;19.70;61.90;;;;;;5094135;28;20397;-62
2021/06/16 00:02:38;;;;;;;14.20;2.47;;;19.60;61.90;;;;;;5092457;28;20024;-62
2021/06/16 00:05:16;;;;;;;15.75;2.70;;;19.60;61.90;;;;;;5084765;28;20372;-62
2021/06/16 00:07:42;;;;;;;9.80;2.58;;;19.60;62.00;;;;;;5086294;28;20479;-62
2021/06/16 00:10:10;;;;;;;8.95;2.33;;;19.60;62.10;;;;;;5092193;28;20032;-62
2021/06/16 00:12:36;;;;;;;7.45;2.30;;;19.60;62.30;;;;;;5092824;28;20161;-62
2021/06/16 00:15:07;;;;;;;7.70;2.45;;;19.50;62.30;;;;;;5090870;28;20024;-62
2021/06/16 00:17:33;;;;;;;11.32;2.50;;;19.50;62.40;;;;;;5092048;28;20510;-62
2021/06/16 00:19:58;;;;;;;9.50;2.78;;;19.50;62.50;;;;;;5089902;28;20103;-62
2021/06/16 00:22:24;;;;;;;9.13;2.40;;;19.50;62.60;;;;;;5091896;28;20047;-62
2021/06/16 00:24:50;;;;;;;7.03;2.08;;;19.40;62.60;;;;;;5090852;28;20031;-62
2021/06/16 00:27:15;;;;;;;7.78;2.63;;;19.50;62.70;;;;;;5092693;28;20424;-62
2021/06/16 00:29:41;;;;;;;9.48;2.20;;;19.40;62.80;;;;;;5093066;28;20078;-62
2021/06/16 00:32:07;;;;;;;5.70;2.50;;;19.30;62.80;;;;;;5091261;28;20486;-62
2021/06/16 00:34:33;;;;;;;10.80;2.22;;;19.40;63.20;;;;;;5092094;28;20364;-62
2021/06/16 00:36:59;;;;;;;9.15;2.40;;;19.30;63.10;;;;;;5087818;28;20101;-62
2021/06/16 00:39:25;;;;;;;10.02;2.42;;;19.30;63.20;;;;;;5093061;28;20028;-62
2021/06/16 00:41:50;;;;;;;6.57;2.03;;;19.30;63.20;;;;;;5090971;28;20024;-62
2021/06/16 00:44:16;;;;;;;4.35;2.00;;;19.30;63.30;;;;;;5074360;28;20056;-62
2021/06/16 00:46:42;;;;;;;7.38;2.38;;;19.30;63.30;;;;;;5070873;28;20052;-62
2021/06/16 00:49:08;;;;;;;10.10;2.50;;;19.30;63.40;;;;;;5067202;28;20036;-62
2021/06/16 00:51:33;;;;;;;5.95;2.20;;;19.20;63.40;;;;;;5062331;28;20127;-62
2021/06/16 00:53:59;;;;;;;7.65;2.28;;;19.20;63.60;;;;;;5068069;28;20487;-62
2021/06/16 00:56:25;;;;;;;14.02;2.83;;;19.20;63.70;;;;;;5070164;28;20036;-62
2021/06/16 00:58:51;;;;;;;10.32;2.60;;;19.20;63.90;;;;;;5070261;28;20031;-62
2021/06/16 01:01:21;;;;;;;11.82;2.38;;;19.10;63.90;;;;;;5069919;28;20033;-62
2021/06/16 01:04:07;;;;;;;6.90;2.40;;;19.10;64.00;;;;;;5071422;28;20032;-62
2021/06/16 01:06:48;;;;;;;9.15;2.40;;;19.10;64.10;;;;;;5069741;28;20029;-62
2021/06/16 01:09:19;;;;;;;8.13;2.88;;;19.00;64.20;;;;;;5070109;28;20028;-62
2021/06/16 01:12:25;;;;;;;9.60;2.40;;;19.10;64.40;;;;;;5059439;28;20074;-62
2021/06/16 01:15:14;;;;;;;9.50;2.70;;;19.00;64.40;;;;;;5017877;28;20127;-62
2021/06/16 01:17:58;;;;;;;5.30;2.50;;;19.00;64.50;;;;;;5070318;28;20463;-62
2021/06/16 01:20:36;;;;;;;16.80;3.55;;;19.00;64.60;;;;;;5061975;28;20047;-62
2021/06/16 01:23:08;;;;;;;9.50;2.60;;;18.90;64.70;;;;;;5068639;28;20506;-62
2021/06/16 01:25:44;;;;;;;11.15;2.78;;;18.90;64.80;;;;;;5070295;28;20033;-62
2021/06/16 01:28:10;;;;;;;11.88;2.60;;;18.90;64.90;;;;;;5068865;28;20063;-62
2021/06/16 01:30:37;;;;;;;7.40;2.08;;;18.80;64.90;;;;;;5060122;28;20383;-62
2021/06/16 01:33:07;;;;;;;8.25;2.47;;;18.80;65.00;;;;;;5071064;28;20048;-62
2021/06/16 01:35:36;;;;;;;13.80;2.50;;;18.80;65.10;;;;;;5071227;28;20020;-62
2021/06/16 01:38:06;;;;;;;9.05;2.90;;;18.80;65.00;;;;;;5063672;28;20119;-62
2021/06/16 01:40:32;;;;;;;6.55;2.30;;;18.80;65.20;;;;;;5070300;28;20045;-62
2021/06/16 01:43:02;;;;;;;10.65;2.90;;;18.70;65.30;;;;;;5077183;28;20138;-62
2021/06/16 01:45:31;;;;;;;8.82;2.67;;;18.70;65.50;;;;;;5084299;28;20028;-62
2021/06/16 01:47:59;;;;;;;7.40;2.55;;;18.70;65.60;;;;;;5091399;28;20035;-62
2021/06/16 01:50:26;;;;;;;12.02;3.97;;;18.70;65.80;;;;;;5088593;28;20102;-62
2021/06/16 01:52:55;;;;;;;12.98;3.35;;;18.60;65.80;;;;;;5079004;28;20054;-62
2021/06/16 01:55:21;;;;;;;13.20;2.50;;;18.60;65.90;;;;;;5091552;28;20054;-62
2021/06/16 01:57:51;;;;;;;11.77;2.78;;;18.60;65.90;;;;;;5089635;28;20475;-62
2021/06/16 02:00:21;;;;;;;10.88;2.83;;;18.60;66.00;;;;;;5091502;28;20032;-62
2021/06/16 02:02:48;;;;;;;8.73;2.33;;;18.50;65.80;;;;;;5088209;28;20063;-62
2021/06/16 02:05:18;;;;;;;14.10;2.78;;;18.50;65.90;;;;;;5093864;28;20059;-62
2021/06/16 02:08:10;;;;;;;8.40;2.72;;;18.50;65.90;;;;;;5091800;28;20043;-62
2021/06/16 02:10:38;;;;;;;6.70;2.42;;;18.50;66.00;;;;;;5079203;28;20040;-62
2021/06/16 02:13:08;;;;;;;9.27;2.45;;;18.40;66.00;;;;;;5094820;28;20060;-62
2021/06/16 02:16:01;;;;;;;6.72;2.88;;;18.40;66.20;;;;;;5094610;28;20097;-62
2021/06/16 02:18:37;;;;;;;5.80;2.40;;;18.40;66.20;;;;;;5093432;28;20032;-62
2021/06/16 02:21:07;;;;;;;7.93;2.40;;;18.40;66.20;;;;;;5091825;28;20720;-62
2021/06/16 02:23:32;;;;;;;9.23;2.63;;;18.30;66.10;;;;;;5088038;28;20028;-62
2021/06/16 02:25:59;;;;;;;9.52;2.45;;;18.30;66.20;;;;;;5093063;28;20046;-62
2021/06/16 02:28:24;;;;;;;13.77;3.20;;;18.30;66.30;;;;;;5094416;28;20039;-62
2021/06/16 02:30:50;;;;;;;9.05;3.00;;;18.30;66.30;;;;;;5095073;28;20040;-62
2021/06/16 02:33:16;;;;;;;16.60;2.40;;;18.20;66.20;;;;;;5093221;28;20032;-62
2021/06/16 02:35:42;;;;;;;12.07;2.80;;;18.30;66.30;;;;;;5093894;28;20120;-62
2021/06/16 02:38:11;;;;;;;9.23;3.05;;;18.20;66.20;;;;;;5095429;28;20074;-62
2021/06/16 02:40:40;;;;;;;11.98;2.83;;;18.20;66.20;;;;;;5088082;28;20024;-62
2021/06/16 02:43:07;;;;;;;9.63;2.53;;;18.20;66.20;;;;;;5095000;28;20040;-62
2021/06/16 02:45:35;;;;;;;9.13;3.00;;;18.10;66.20;;;;;;5093615;28;20398;-62
2021/06/16 02:48:02;;;;;;;8.73;3.17;;;18.20;66.10;;;;;;5089058;28;20036;-62
2021/06/16 02:50:29;;;;;;;7.97;3.58;;;18.00;66.10;;;;;;5092505;28;20024;-62
2021/06/16 02:52:59;;;;;;;10.68;3.13;;;18.00;66.10;;;;;;5094234;28;20040;-62
2021/06/16 02:55:26;;;;;;;9.55;2.78;;;18.00;66.00;;;;;;5093474;28;20019;-62
2021/06/16 02:57:53;;;;;;;8.48;2.70;;;18.00;66.00;;;;;;5095020;28;20035;-62
2021/06/16 03:00:21;;;;;;;14.10;2.67;;;18.00;66.20;;;;;;5093832;28;20055;-62
2021/06/16 03:02:48;;;;;;;7.75;3.10;;;18.00;66.20;;;;;;5093400;28;20036;-62
2021/06/16 03:05:18;;;;;;;8.85;2.78;;;17.90;66.20;;;;;;5095112;28;20032;-62
2021/06/16 03:07:45;;;;;;;11.52;3.00;;;17.90;66.10;;;;;;5092961;28;20028;-62
2021/06/16 03:10:11;;;;;;;9.15;2.72;;;17.90;66.20;;;;;;5093104;28;20028;-62
2021/06/16 03:12:38;;;;;;;11.43;2.70;;;17.90;66.20;;;;;;5093314;28;20032;-62
2021/06/16 03:15:06;;;;;;;14.90;3.33;;;17.90;66.30;;;;;;5091137;28;20026;-62
2021/06/16 03:17:33;;;;;;;10.75;2.70;;;17.90;66.50;;;;;;5094173;28;20447;-62
2021/06/16 03:20:02;;;;;;;7.40;2.75;;;17.90;66.60;;;;;;5092830;28;20020;-62
2021/06/16 03:22:30;;;;;;;9.88;2.70;;;17.80;66.60;;;;;;5092662;28;20024;-62
2021/06/16 03:24:57;;;;;;;7.10;2.97;;;17.80;66.70;;;;;;5093767;28;20073;-62
2021/06/16 03:27:24;;;;;;;7.40;3.10;;;17.80;66.70;;;;;;5093831;28;20042;-62
2021/06/16 03:29:52;;;;;;;7.70;2.90;;;17.80;66.70;;;;;;5093840;28;20024;-64
2021/06/16 03:32:19;;;;;;;5.70;2.50;;;17.80;66.60;;;;;;5090948;28;20086;-62
2021/06/16 03:34:45;;;;;;;9.73;3.03;;;17.80;66.80;;;;;;5094175;28;20077;-62
2021/06/16 03:37:12;;;;;;;8.13;2.80;;;17.80;66.80;;;;;;5093800;28;20043;-62
2021/06/16 03:39:39;;;;;;;10.35;3.22;;;17.80;66.90;;;;;;5093620;28;20062;-62
2021/06/16 03:42:06;;;;;;;11.73;3.33;;;17.70;66.80;;;;;;5092974;28;20028;-63
2021/06/16 03:44:34;;;;;;;7.43;3.22;;;17.70;66.90;;;;;;5091976;28;20496;-63
2021/06/16 03:47:02;;;;;;;10.70;3.45;;;17.70;66.90;;;;;;5093236;28;20471;-63
2021/06/16 03:49:29;;;;;;;15.32;3.45;;;17.70;67.10;;;;;;5093283;28;20137;-63
2021/06/16 03:51:56;;;;;;;9.95;3.47;;;17.70;67.00;;;;;;5092127;28;20039;-62
2021/06/16 03:54:24;;;;;;;11.27;3.25;;;17.70;67.00;;;;;;5093212;28;20035;-63
2021/06/16 03:56:51;;;;;;;7.88;3.15;;;17.70;67.10;;;;;;5092442;28;20036;-63
2021/06/16 03:59:19;;;;;;;8.82;3.45;;;17.60;67.10;;;;;;5093379;28;20032;-63
2021/06/16 04:01:45;;;;;;;7.75;3.28;;;17.70;67.40;;;;;;5092665;28;20020;-64
2021/06/16 04:04:12;;;;;;;9.00;3.15;;;17.60;67.40;;;;;;5091730;28;20429;-62
2021/06/16 04:06:43;;;;;;;13.15;3.05;;;17.60;67.40;;;;;;5092571;28;20024;-62
2021/06/16 04:09:11;;;;;;;8.88;2.90;;;17.60;67.50;;;;;;5092504;28;20031;-62
2021/06/16 04:11:37;;;;;;;10.15;3.33;;;17.60;67.60;;;;;;5090988;28;20040;-62
2021/06/16 04:14:04;;;;;;;6.95;2.65;;;17.60;67.70;;;;;;5090117;28;20028;-62
2021/06/16 04:16:30;;;;;;;12.05;3.20;;;17.50;67.70;;;;;;5092474;28;20028;-63
2021/06/16 04:18:55;;;;;;;6.90;3.10;;;17.50;68.50;;;;;;5091355;28;20036;-62
2021/06/16 04:21:22;;;;;;;6.82;2.65;;;17.60;68.00;;;;;;5091490;28;20088;-62
2021/06/16 04:23:49;;;;;;;4.68;2.85;;;17.50;68.10;;;;;;5092408;28;20059;-62
2021/06/16 04:26:16;;;;;;;9.82;3.20;;;17.60;68.30;;;;;;5091418;28;20032;-62
2021/06/16 04:28:42;;;;;;;8.07;3.08;;;17.50;69.00;;;;;;5089122;28;20043;-62
2021/06/16 04:31:09;;;;;;;7.32;3.35;;;17.60;68.50;;;;;;5092121;28;20078;-62
2021/06/16 04:33:34;;;;;;;6.22;2.90;;;17.50;68.70;;;;;;5091999;28;20016;-63
2021/06/16 04:36:02;;;;;;;10.27;3.58;;;17.50;68.70;;;;;;5092660;28;20032;-62
2021/06/16 04:38:27;;;;;;;11.50;3.15;;;17.50;68.80;;;;;;5091549;28;20031;-62
2021/06/16 04:40:53;;;;;;;10.52;3.45;;;17.50;68.90;;;;;;5092673;28;20115;-62
2021/06/16 04:43:19;;;;;;;10.15;3.17;;;17.50;69.00;;;;;;5091841;28;20040;-62
2021/06/16 04:45:45;;;;;;;12.35;3.80;;;17.50;69.00;;;;;;5092018;28;20078;-62
2021/06/16 04:48:10;;;;;;;9.70;3.10;;;17.50;69.10;;;;;;5082700;28;20027;-62
2021/06/16 04:50:36;;;;;;;11.52;4.45;;;17.60;69.10;;;;;;5088241;28;20399;-63
2021/06/16 04:53:02;;;;;;;9.77;3.10;;;17.60;69.30;;;;;;5091452;28;20042;-62
2021/06/16 04:55:27;;;;;;;11.90;3.80;;;17.50;69.30;;;;;;5091506;28;20463;-63
2021/06/16 04:57:53;;;;;;;6.20;2.83;;;17.50;69.30;;;;;;5091078;28;20024;-63
2021/06/16 05:00:21;;;;;;;12.65;3.97;;;17.60;69.50;;;;;;5089029;28;20020;-62
2021/06/16 05:02:47;;;;;;;8.73;3.28;;;17.50;69.40;;;;;;5087903;28;20043;-62
2021/06/16 05:05:13;;;;;;;9.50;3.70;;;17.60;69.60;;;;;;5073419;28;20395;-62
2021/06/16 05:07:39;;;;;;;12.80;4.53;;;17.60;69.60;;;;;;5090747;28;20391;-62
2021/06/16 05:10:06;;;;;;;8.00;2.80;;;17.60;69.70;;;;;;5073419;28;20408;-63
2021/06/16 05:12:32;;;;;;;6.32;2.50;;;17.60;70.00;;;;;;5091084;28;20070;-62
2021/06/16 05:14:58;;;;;;;6.75;3.00;;;17.60;70.70;;;;;;5091881;28;20052;-62
2021/06/16 05:17:24;;;;;;;10.05;2.83;;;17.60;70.80;;;;;;5091029;28;20064;-63
2021/06/16 05:19:56;;;;;;;16.42;3.85;;;17.60;70.90;;;;;;5090780;28;20034;-63
2021/06/16 05:22:23;;;;;;;6.57;3.30;;;17.70;70.80;;;;;;5091654;28;20058;-65
2021/06/16 05:24:49;;;;;;;8.43;3.22;;;17.70;70.70;;;;;;5066917;28;20036;-62
2021/06/16 05:27:15;;;;;;;7.85;3.20;;;17.80;71.10;;;;;;5089192;28;20031;-62
2021/06/16 05:29:42;;;;;;;10.48;3.08;;;17.80;70.90;;;;;;5089887;28;20024;-62
2021/06/16 05:32:08;;;;;;;8.18;3.15;;;17.90;70.90;;;;;;5090566;28;20115;-63
2021/06/16 05:34:35;;;;;;;6.05;2.63;;;17.80;70.90;;;;;;5090596;28;20112;-63
2021/06/16 05:37:01;;;;;;;7.50;3.40;;;17.90;70.90;;;;;;5089959;28;20028;-62
2021/06/16 05:39:27;;;;;;;16.17;4.38;;;17.90;71.00;;;;;;5092864;28;20024;-62
2021/06/16 05:41:53;;;;;;;10.68;3.35;;;17.90;71.00;;;;;;5093963;28;20368;-62
2021/06/16 05:44:19;;;;;;;8.68;3.00;;;18.00;71.00;;;;;;5095149;28;20040;-62
2021/06/16 05:46:45;;;;;;;5.47;2.67;;;18.10;71.10;;;;;;5094219;28;20028;-62
2021/06/16 05:49:11;;;;;;;11.55;3.22;;;18.10;71.10;;;;;;5091706;28;20033;-62
2021/06/16 05:51:37;;;;;;;15.63;3.67;;;18.00;71.10;;;;;;5093868;28;20047;-63
2021/06/16 05:54:03;;;;;;;14.50;3.80;;;18.10;71.10;;;;;;5094587;28;20028;-64
2021/06/16 05:56:28;;;;;;;12.48;3.55;;;18.10;71.20;;;;;;5091208;28;20536;-69
2021/06/16 05:58:54;;;;;;;14.68;3.45;;;18.20;71.10;;;;;;5093764;28;20077;-63
2021/06/16 06:01:19;;;;;;;15.48;3.60;;;18.20;71.20;;;;;;5094476;28;20382;-63
2021/06/16 06:03:45;;;;;;;9.93;3.42;;;18.20;71.00;;;;;;5093374;28;20050;-63
2021/06/16 06:06:11;;;;;;;13.35;3.65;;;18.30;71.10;;;;;;5093949;28;20028;-63
2021/06/16 06:08:36;;;;;;;7.00;3.30;;;18.30;71.10;;;;;;5094307;28;20114;-63
2021/06/16 06:11:03;;;;;;;12.02;3.75;;;18.30;70.90;;;;;;5093752;28;20032;-63
2021/06/16 06:13:29;;;;;;;9.35;3.45;;;18.40;70.70;;;;;;5089455;28;20052;-64
2021/06/16 06:15:57;;;;;;;9.82;3.17;;;18.40;70.70;;;;;;5092271;28;20063;-63
2021/06/16 06:18:23;;;;;;;10.63;3.05;;;18.50;71.00;;;;;;5089913;28;20085;-63
2021/06/16 06:20:49;;;;;;;11.70;3.65;;;18.50;71.00;;;;;;5092505;28;20028;-64
2021/06/16 06:23:14;;;;;;;4.90;2.70;;;18.50;70.80;;;;;;5093048;28;20535;-69
2021/06/16 06:25:40;;;;;;;8.63;3.15;;;18.60;70.80;;;;;;5093015;28;20518;-63
2021/06/16 06:28:06;;;;;;;6.05;2.78;;;18.60;70.90;;;;;;5093514;28;20023;-63
2021/06/16 06:30:32;;;;;;;7.38;2.72;;;18.70;71.00;;;;;;5093630;28;20026;-66
2021/06/16 06:32:57;;;;;;;6.25;3.10;;;18.70;71.00;;;;;;5095362;28;20074;-66
2021/06/16 06:35:23;;;;;;;8.18;2.97;;;18.70;71.50;;;;;;5092715;28;20119;-64
2021/06/16 06:37:49;;;;;;;11.35;3.13;;;18.80;70.60;;;;;;5093596;28;20051;-63
2021/06/16 06:40:14;;;;;;;9.43;3.33;;;18.80;70.70;;;;;;5094035;28;20483;-62
2021/06/16 06:42:40;;;;;;;9.80;3.42;;;18.80;70.70;;;;;;5089186;28;20376;-63
2021/06/16 06:45:07;;;;;;;10.60;3.55;;;18.90;70.20;;;;;;5089854;28;20095;-62
2021/06/16 06:47:32;;;;;;;6.15;3.20;;;18.90;70.00;;;;;;5091449;28;20619;-63
2021/06/16 06:49:58;;;;;;;11.43;3.35;;;19.00;69.50;;;;;;5091233;28;20123;-63
2021/06/16 06:52:24;;;;;;;13.75;3.13;;;19.00;69.60;;;;;;5087978;28;20063;-63
2021/06/16 06:54:53;;;;;;;13.10;3.70;;;19.00;69.50;;;;;;5091572;28;20024;-63
2021/06/16 06:57:19;;;;;;;11.50;3.40;;;19.10;70.20;;;;;;5091110;28;20020;-63
2021/06/16 06:59:47;;;;;;;9.50;3.65;;;19.10;69.50;;;;;;5089111;28;20020;-62
2021/06/16 07:02:13;;;;;;;11.75;4.07;;;19.10;69.90;;;;;;5092616;28;20028;-62
2021/06/16 07:04:39;;;;;;;14.82;3.53;;;19.20;70.10;;;;;;5088417;28;20030;-62
2021/06/16 07:07:04;;;;;;;12.38;3.90;;;19.30;70.20;;;;;;5086033;28;20158;-63
2021/06/16 07:09:30;;;;;;;9.48;3.42;;;19.30;70.50;;;;;;5093562;28;20081;-63
2021/06/16 07:11:56;;;;;;;9.95;4.72;;;19.30;70.50;;;;;;5091151;28;20059;-63
2021/06/16 07:14:21;;;;;;;8.13;3.63;;;19.40;70.80;;;;;;5090723;28;20024;-63
2021/06/16 07:16:47;;;;;;;11.85;3.88;;;19.40;70.70;;;;;;5087420;28;20064;-63
2021/06/16 07:19:13;;;;;;;13.18;4.47;;;19.40;70.60;;;;;;5087430;28;20059;-63
2021/06/16 07:21:39;;;;;;;8.75;3.35;;;19.60;70.30;;;;;;5092779;28;20028;-63
2021/06/16 07:24:05;;;;;;;9.75;4.22;;;19.60;70.10;;;;;;5088161;28;20107;-63
2021/06/16 07:26:31;;;;;;;7.97;3.63;;;19.60;70.10;;;;;;5088127;28;20063;-63
2021/06/16 07:28:56;;;;;;;15.82;4.47;;;19.70;70.20;;;;;;5072288;28;20101;-62
2021/06/16 07:31:22;;;;;;;11.30;4.13;;;19.70;70.50;;;;;;5092195;28;20035;-63
2021/06/16 07:33:48;;;;;;;12.43;3.67;;;19.80;70.50;;;;;;5092261;28;20028;-63
2021/06/16 07:36:19;;;;;;;9.68;4.32;;;19.80;70.30;;;;;;5090963;28;20036;-63
2021/06/16 07:38:45;;;;;;;12.57;3.55;;;19.90;70.40;;;;;;5090516;28;20074;-63
2021/06/16 07:41:11;;;;;;;15.70;5.53;;;19.90;69.90;;;;;;5085608;28;20029;-63
2021/06/16 07:43:36;;;;;;;12.48;3.90;;;20.00;70.00;;;;;;5060577;28;121670;-63
2021/06/16 07:46:02;;;;;;;7.22;3.65;;;20.00;70.10;;;;;;5091494;28;20032;-63
2021/06/16 07:48:28;;;;;;;11.73;4.07;;;20.10;70.20;;;;;;5084317;28;20535;-63
2021/06/16 07:50:53;;;;;;;13.10;4.00;;;20.10;69.60;;;;;;5093001;28;20043;-63
2021/06/16 07:53:20;;;;;;;10.05;3.92;;;20.20;69.90;;;;;;5092424;28;20024;-63
2021/06/16 07:55:46;;;;;;;6.75;3.33;;;20.20;70.00;;;;;;5089569;28;20032;-63
2021/06/16 07:58:11;;;;;;;15.88;4.75;;;20.30;69.90;;;;;;5092939;28;20024;-63
2021/06/16 08:00:37;;;;;;;10.25;4.88;;;20.30;69.90;;;;;;5092232;28;20494;-63
2021/06/16 08:03:04;;;;;;;13.10;4.25;;;20.40;69.90;;;;;;5091437;28;20032;-63
2021/06/16 08:05:30;;;;;;;10.10;4.85;;;20.50;70.20;;;;;;5081625;28;20147;-62
2021/06/16 08:07:55;;;;;;;14.02;4.30;;;20.50;69.90;;;;;;5092792;28;20028;-63
2021/06/16 08:10:21;;;;;;;9.15;3.35;;;20.60;70.20;;;;;;5092097;28;20024;-63
2021/06/16 08:12:47;;;;;;;13.23;4.50;;;20.60;68.60;;;;;;5092872;28;20490;-63
2021/06/16 08:15:13;;;;;;;13.38;4.40;;;20.60;67.30;;;;;;5084067;28;20020;-63
2021/06/16 08:17:39;;;;;;;10.07;4.20;;;20.60;68.60;;;;;;5091241;28;20035;-63
2021/06/16 08:20:06;;;;;;;14.40;4.30;;;20.60;68.60;;;;;;5093529;28;20119;-63
2021/06/16 08:22:33;;;;;;;10.98;4.30;;;20.70;68.60;;;;;;5091473;28;20047;-63
2021/06/16 08:25:00;;;;;;;10.52;3.97;;;20.70;67.50;;;;;;5091980;28;20055;-63
2021/06/16 08:27:27;;;;;;;16.42;3.92;;;20.70;68.40;;;;;;5092843;28;20082;-63
2021/06/16 08:29:53;;;;;;;11.02;3.70;;;20.70;68.40;;;;;;5092575;28;20085;-63
2021/06/16 08:32:19;;;;;;;13.82;5.07;;;20.80;69.20;;;;;;5090155;28;20044;-63
2021/06/16 08:34:44;;;;;;;18.40;5.97;;;20.80;69.00;;;;;;5093547;28;20019;-63
2021/06/16 08:37:10;;;;;;;14.98;3.78;;;20.90;69.30;;;;;;5089790;28;20554;-63
2021/06/16 08:39:36;;;;;;;17.35;5.07;;;21.10;68.90;;;;;;5092064;28;20016;-63
2021/06/16 08:42:02;;;;;;;13.27;4.68;;;21.10;69.00;;;;;;5092859;28;20486;-63
2021/06/16 08:44:28;;;;;;;9.85;3.80;;;21.20;68.40;;;;;;5089899;28;20048;-63
2021/06/16 08:46:54;;;;;;;9.90;3.35;;;21.30;68.10;;;;;;5092442;28;20090;-63
2021/06/16 08:49:20;;;;;;;7.32;3.28;;;21.30;67.60;;;;;;5089344;28;20536;-63
2021/06/16 08:51:46;;;;;;;15.23;3.47;;;21.40;67.60;;;;;;5092400;28;20067;-63
2021/06/16 08:54:11;;;;;;;6.95;3.17;;;21.40;67.30;;;;;;5091130;28;20032;-63
2021/06/16 08:56:37;;;;;;;13.88;3.50;;;21.50;66.90;;;;;;5092335;28;20020;-63
2021/06/16 08:59:03;;;;;;;11.32;3.05;;;21.60;66.50;;;;;;5092475;28;20509;-63
2021/06/16 09:01:29;;;;;;;8.32;2.63;;;21.70;66.10;;;;;;5092125;28;20059;-63
2021/06/16 09:03:55;;;;;;;9.20;3.15;;;21.70;65.80;;;;;;5092780;28;20028;-63
2021/06/16 09:06:27;;;;;;;9.00;2.53;;;21.80;65.50;;;;;;5090813;28;20054;-63
2021/06/16 09:09:03;;;;;;;9.57;2.25;;;21.90;65.30;;;;;;5088137;28;20035;-63
2021/06/16 09:11:43;;;;;;;7.47;2.53;;;21.90;65.20;;;;;;5091353;28;20036;-63
2021/06/16 09:14:16;;;;;;;8.52;2.60;;;21.90;65.00;;;;;;5091377;28;20028;-63
2021/06/16 09:16:42;;;;;;;4.57;2.63;;;22.00;64.80;;;;;;5070219;28;20055;-63
2021/06/16 09:19:21;;;;;;;8.85;2.97;;;22.00;64.60;;;;;;5091474;28;20111;-63
2021/06/16 09:21:49;;;;;;;7.72;2.70;;;22.10;64.00;;;;;;5083271;28;20376;-63
2021/06/16 09:24:16;;;;;;;11.25;2.45;;;22.10;63.80;;;;;;5089793;28;20142;-63
2021/06/16 09:26:43;;;;;;;9.02;2.22;;;22.20;64.00;;;;;;5087303;28;20032;-63
2021/06/16 09:29:09;;;;;;;7.32;3.22;;;22.20;63.90;;;;;;5090708;28;20089;-63
2021/06/16 09:31:38;;;;;;;7.65;2.55;;;22.30;63.40;;;;;;5091050;28;20119;-63
2021/06/16 09:34:10;;;;;;;5.82;1.65;;;22.30;63.60;;;;;;5090539;28;20086;-63
2021/06/16 09:36:47;;;;;;;13.85;2.33;;;22.30;63.80;;;;;;5089997;28;20066;-66
2021/06/16 09:39:13;;;;;;;9.48;2.33;;;22.30;63.30;;;;;;5086281;28;20020;-66
2021/06/16 09:42:12;;;;;;;9.48;2.33;;;22.30;63.10;;;;;;5091586;28;20388;-62
2021/06/16 09:44:45;;;;;;;6.35;2.00;;;22.30;62.80;;;;;;5088530;28;20040;-63
2021/06/16 09:47:20;;;;;;;10.02;2.10;;;22.50;63.00;;;;;;5086871;28;20032;-63
2021/06/16 09:50:00;;;;;;;3.40;1.85;;;22.50;62.70;;;;;;5090792;28;20123;-62
2021/06/16 09:52:38;;;;;;;4.85;1.90;;;22.50;62.00;;;;;;5091956;28;20402;-62
2021/06/16 09:55:13;;;;;;;10.13;2.60;;;22.60;62.60;;;;;;5091120;28;20036;-63
2021/06/16 09:57:57;;;;;;;8.23;2.30;;;22.60;62.30;;;;;;5090783;28;20028;-62
2021/06/16 10:00:49;;;;;;;10.45;2.90;;;22.60;62.60;;;;;;5090652;28;20065;-63
2021/06/16 10:03:22;;;;;;;10.95;2.50;;;22.80;63.60;;;;;;5087501;28;20039;-63
2021/06/16 10:06:06;;;;;;;9.23;2.10;;;22.90;62.90;;;;;;5091781;28;20077;-63
2021/06/16 10:08:42;;;;;;;;;;;22.80;62.50;;;;;;5089578;28;20457;-62
2021/06/16 10:11:16;;;;;;;9.73;2.60;;;22.90;62.90;;;;;;5087663;28;20014;-71
2021/06/16 10:13:43;;;;;;;14.38;3.10;;;22.90;62.70;;;;;;5091139;28;20489;-62
2021/06/16 10:16:10;;;;;;;8.10;2.60;;;23.00;62.30;;;;;;5089140;28;20032;-63
2021/06/16 10:18:40;;;;;;;8.13;2.40;;;23.00;62.00;;;;;;5087160;28;20028;-62
2021/06/16 10:21:08;;;;;;;6.65;2.38;;;23.00;60.90;;;;;;5089614;28;20028;-63
2021/06/16 10:23:34;;;;;;;5.47;2.50;;;23.10;62.10;;;;;;5085701;28;20027;-63
2021/06/16 10:26:07;;;;;;;6.63;2.10;;;23.20;62.30;;;;;;5092701;28;20482;-63
2021/06/16 10:28:39;;;;;;;8.45;2.38;;;23.20;61.20;;;;;;5094098;28;20408;-63
2021/06/16 10:31:06;;;;;;;11.15;2.58;;;23.20;61.00;;;;;;5093834;28;20040;-63
2021/06/16 10:33:40;;;;;;;4.07;1.40;;;23.30;61.00;;;;;;5093165;28;20024;-63
2021/06/16 10:36:18;;;;;;;9.52;2.15;;;23.30;60.80;;;;;;5091560;28;20020;-62
2021/06/16 10:38:59;;;;;;;4.80;1.98;;;23.30;59.30;;;;;;5090968;28;20174;-63
2021/06/16 10:41:45;;;;;;;5.55;1.80;;;23.30;59.60;;;;;;5072131;28;20032;-67
2021/06/16 10:44:10;;;;;;;4.80;1.90;;;23.20;59.70;;;;;;5075345;28;20462;-62
2021/06/16 10:46:57;;;;;;;6.90;2.10;;;23.20;59.20;;;;;;5091397;28;20390;-63
2021/06/16 10:49:41;;;;;;;5.07;1.55;;;23.30;58.60;;;;;;5091193;28;20104;-63
2021/06/16 10:52:10;;;;;;;7.65;1.98;;;23.40;58.80;;;;;;5093302;28;20106;-64
2021/06/16 10:54:36;;;;;;;8.65;2.75;;;23.40;58.10;;;;;;5092139;28;20025;-64
2021/06/16 10:57:12;;;;;;;8.88;2.15;;;23.60;58.20;;;;;;5090312;28;20540;-63
2021/06/16 10:59:43;;;;;;;6.57;1.92;;;23.70;58.40;;;;;;5092062;28;20102;-63
2021/06/16 11:02:17;;;;;;;7.47;2.08;;;23.80;59.30;;;;;;5082392;28;20043;-64
2021/06/16 11:04:44;;;;;;;8.40;2.17;;;23.80;59.20;;;;;;5083670;28;20096;-64
2021/06/16 11:07:32;;;;;;;7.32;1.85;;;23.90;58.30;;;;;;5088703;28;20430;-64
2021/06/16 11:10:02;;;;;;;6.90;1.92;;;24.00;58.30;;;;;;5085297;28;20035;-64
2021/06/16 11:12:33;;;;;;;12.73;2.22;;;24.00;58.30;;;;;;5084619;28;20071;-64
2021/06/16 11:14:59;;;;;;;6.20;1.50;;;24.10;57.70;;;;;;5085138;28;20020;-64
2021/06/16 11:17:34;;;;;;;10.00;2.10;;;24.10;57.30;;;;;;5092647;28;20064;-64
2021/06/16 11:20:03;;;;;;;5.45;1.95;;;24.20;57.10;;;;;;5093944;28;20085;-64
2021/06/16 11:22:29;;;;;;;10.45;1.85;;;24.20;56.90;;;;;;5094263;28;20364;-64
2021/06/16 11:25:29;;;;;;;6.03;1.88;;;24.30;57.20;;;;;;5093946;28;20046;-64
2021/06/16 11:27:59;;;;;;;11.52;2.15;;;24.30;56.30;;;;;;5090145;28;20056;-64
2021/06/16 11:30:27;;;;;;;4.60;1.65;;;24.40;56.90;;;;;;5071917;28;20020;-64
2021/06/16 11:33:12;;;;;;;11.30;1.58;;;24.40;56.10;;;;;;5092052;28;20048;-64
2021/06/16 11:35:50;;;;;;;7.15;1.95;;;24.50;55.80;;;;;;5073381;28;20474;-64
2021/06/16 11:38:21;;;;;;;4.78;1.63;;;24.50;55.30;;;;;;5093313;28;20032;-64
2021/06/16 11:41:04;;;;;;;7.50;1.70;;;24.70;54.80;;;;;;5091956;28;20020;-64
2021/06/16 11:43:57;;;;;;;9.73;1.75;;;24.70;55.20;;;;;;5093577;28;20417;-63
2021/06/16 11:46:34;;;;;;;7.30;1.80;;;24.80;55.00;;;;;;5092864;28;20475;-65
2021/06/16 11:49:03;;;;;;;5.60;1.58;;;24.80;54.10;;;;;;5093005;28;20101;-65
2021/06/16 11:51:43;;;;;;;9.43;1.90;;;24.90;54.00;;;;;;5093329;28;20444;-66
2021/06/16 11:54:19;;;;;;;11.23;1.67;;;24.90;54.10;;;;;;5090619;28;20085;-63
2021/06/16 11:56:53;;;;;;;5.55;1.60;;;25.00;54.00;;;;;;5083391;28;20066;-64
2021/06/16 11:59:47;;;;;;;8.45;1.58;;;25.10;53.70;;;;;;5093029;28;20036;-64
2021/06/16 12:02:21;;;;;;;5.22;1.67;;;25.20;54.20;;;;;;5072434;28;20495;-63
2021/06/16 12:04:51;;;;;;;6.78;1.83;;;25.20;54.20;;;;;;5089386;28;20024;-64
2021/06/16 12:07:25;;;;;;;6.45;1.73;;;25.30;53.90;;;;;;5091454;28;20485;-64
2021/06/16 12:09:54;;;;;;;5.93;2.00;;;25.30;53.00;;;;;;5089131;28;20475;-63
2021/06/16 12:12:21;;;;;;;7.95;1.75;;;25.40;52.40;;;;;;5091737;28;20359;-63
2021/06/16 12:14:46;;;;;;;8.77;1.73;;;25.40;51.50;;;;;;5091063;28;20027;-64
2021/06/16 12:17:12;;;;;;;4.38;1.40;;;25.40;52.80;;;;;;5078873;28;20016;-63
2021/06/16 12:19:39;;;;;;;4.70;1.45;;;25.50;52.80;;;;;;5067403;28;20051;-63
2021/06/16 12:22:08;;;;;;;5.03;1.48;;;25.60;53.30;;;;;;5089631;28;20059;-63
2021/06/16 12:24:43;;;;;;;4.78;2.30;;;25.60;51.90;;;;;;5082469;28;20032;-63
2021/06/16 12:27:16;;;;;;;4.80;1.65;;;25.60;51.60;;;;;;5089150;28;20031;-63
2021/06/16 12:29:50;;;;;;;6.05;1.90;;;25.70;52.00;;;;;;5091488;28;20487;-63
2021/06/16 12:32:40;;;;;;;7.60;1.77;;;25.70;51.90;;;;;;5090925;28;20047;-64
2021/06/16 12:35:19;;;;;;;10.13;1.60;;;25.80;52.90;;;;;;5093305;28;20066;-64
2021/06/16 12:37:47;;;;;;;2.97;1.40;;;25.80;51.90;;;;;;5078242;28;20106;-64
2021/06/16 12:40:13;;;;;;;7.72;2.10;;;25.80;52.10;;;;;;5093303;28;20036;-63
2021/06/16 12:42:45;;;;;;;6.90;1.50;;;25.90;53.70;;;;;;5091161;28;20085;-63
2021/06/16 12:45:28;;;;;;;10.40;1.53;;;25.90;51.70;;;;;;5090668;28;20032;-63
2021/06/16 12:47:55;;;;;;;8.60;1.67;;;26.00;52.00;;;;;;5090885;28;20036;-63
2021/06/16 12:50:35;;;;;;;2.35;1.48;;;26.00;51.60;;;;;;5091560;28;20042;-63
2021/06/16 12:53:12;;;;;;;3.38;1.30;;;26.10;52.10;;;;;;5083565;28;20047;-63